createdAt,value
2022-08-25T00:00:27.136Z,25.17
2022-08-25T00:01:27.166Z,25.06
2022-08-25T00:02:27.219Z,25.33
2022-08-25T00:03:27.137Z,25.2
2022-08-25T00:04:27.138Z,25.36
2022-08-25T00:05:28.528Z,25.21
2022-08-25T00:06:27.171Z,25.11
2022-08-25T00:07:27.130Z,25.14
2022-08-25T00:08:27.136Z,25.43
2022-08-25T00:09:27.132Z,25.11
2022-08-25T00:10:27.128Z,25.44
2022-08-25T00:11:27.147Z,25.34
2022-08-25T00:12:27.132Z,25.52
2022-08-25T00:13:27.131Z,25.22
2022-08-25T00:14:27.123Z,25.28
2022-08-25T00:15:27.238Z,25.1
2022-08-25T00:16:27.127Z,25.41
2022-08-25T00:17:27.140Z,25.33
2022-08-25T00:18:27.116Z,25.46
2022-08-25T00:19:27.119Z,25.17
2022-08-25T00:20:27.120Z,25.04
2022-08-25T00:21:27.134Z,24.8
2022-08-25T00:22:27.121Z,24.17
2022-08-25T00:23:27.131Z,24.07
2022-08-25T00:24:27.112Z,24.07
2022-08-25T00:25:27.108Z,24.25
2022-08-25T00:26:27.111Z,23.64
2022-08-25T00:27:27.115Z,23.66
2022-08-25T00:28:27.127Z,23.85
2022-08-25T00:29:27.111Z,23.73
2022-08-25T00:30:27.112Z,23.74
2022-08-25T00:31:37.561Z,23.59
2022-08-25T00:32:27.110Z,23.68
2022-08-25T00:33:27.123Z,23.96
2022-08-25T00:34:27.116Z,24.14
2022-08-25T00:35:27.102Z,23.93
2022-08-25T00:36:27.100Z,23.88
2022-08-25T00:37:27.106Z,24.2
2022-08-25T00:38:27.114Z,24.14
2022-08-25T00:39:27.092Z,24.17
2022-08-25T00:40:27.171Z,24.34
2022-08-25T00:41:28.089Z,24.08
2022-08-25T00:42:27.094Z,24.34
2022-08-25T00:43:27.142Z,24.24
2022-08-25T00:44:27.092Z,24.39
2022-08-25T00:45:27.093Z,24.29
2022-08-25T00:46:27.169Z,24.3
2022-08-25T00:47:27.087Z,24.58
2022-08-25T00:48:27.101Z,24.54
2022-08-25T00:49:27.100Z,24.56
2022-08-25T00:50:27.086Z,24.62
2022-08-25T00:51:27.086Z,24.56
2022-08-25T00:52:27.081Z,24.62
2022-08-25T00:53:27.101Z,24.57
2022-08-25T00:54:27.078Z,24.62
2022-08-25T00:55:27.096Z,24.64
2022-08-25T00:56:27.072Z,24.68
2022-08-25T00:57:33.888Z,24.79
2022-08-25T00:58:27.074Z,24.94
2022-08-25T00:59:27.075Z,24.73
2022-08-25T01:00:27.084Z,24.75
2022-08-25T01:01:27.198Z,24.85
2022-08-25T01:02:27.141Z,24.74
2022-08-25T01:03:33.149Z,24.75
2022-08-25T01:04:27.070Z,25.09
2022-08-25T01:05:27.077Z,24.9
2022-08-25T01:06:27.061Z,25.11
2022-08-25T01:07:27.063Z,24.94
2022-08-25T01:08:27.065Z,25.07
2022-08-25T01:09:27.065Z,24.95
2022-08-25T01:10:27.077Z,25.09
2022-08-25T01:11:27.059Z,24.92
2022-08-25T01:12:27.060Z,25.2
2022-08-25T01:13:27.072Z,25
2022-08-25T01:14:27.060Z,24.97
2022-08-25T01:15:27.181Z,24.89
2022-08-25T01:16:27.050Z,25.09
2022-08-25T01:17:27.061Z,24.86
2022-08-25T01:18:27.049Z,24.83
2022-08-25T01:19:27.049Z,24.95
2022-08-25T01:20:29.300Z,24.97
2022-08-25T01:21:27.061Z,25.17
2022-08-25T01:22:27.051Z,25.18
2022-08-25T01:23:27.051Z,25.05
2022-08-25T01:24:27.050Z,25.13
2022-08-25T01:25:27.041Z,25.06
2022-08-25T01:26:30.513Z,25.16
2022-08-25T01:27:27.039Z,24.97
2022-08-25T01:28:27.040Z,25.18
2022-08-25T01:29:27.038Z,24.93
2022-08-25T01:30:27.039Z,25.1
2022-08-25T01:31:27.128Z,25.14
2022-08-25T01:32:27.043Z,25.02
2022-08-25T01:33:27.046Z,24.94
2022-08-25T01:34:27.056Z,25.02
2022-08-25T01:35:27.038Z,25.03
2022-08-25T01:36:27.037Z,25.09
2022-08-25T01:37:27.046Z,24.99
2022-08-25T01:38:27.025Z,24.96
2022-08-25T01:39:27.029Z,24.92
2022-08-25T01:40:27.106Z,25.03
2022-08-25T01:41:27.018Z,25
2022-08-25T01:42:27.020Z,25.13
2022-08-25T01:43:27.021Z,25.06
2022-08-25T01:44:27.024Z,25.3
2022-08-25T01:45:27.031Z,25.07
2022-08-25T01:46:27.074Z,25.11
2022-08-25T01:47:27.027Z,25.08
2022-08-25T01:48:27.014Z,25.09
2022-08-25T01:49:27.019Z,25.02
2022-08-25T01:50:27.028Z,25.11
2022-08-25T01:51:27.013Z,25.11
2022-08-25T01:52:27.008Z,25.06
2022-08-25T01:53:27.016Z,24.96
2022-08-25T01:54:27.007Z,25.04
2022-08-25T01:55:27.023Z,25.04
2022-08-25T01:56:27.004Z,25.14
2022-08-25T01:57:27.010Z,25.02
2022-08-25T01:58:27.003Z,25.07
2022-08-25T01:59:27.001Z,24.99
2022-08-25T02:00:27.021Z,24.95
2022-08-25T02:01:27.096Z,25.03
2022-08-25T02:02:27.064Z,25.17
2022-08-25T02:03:26.996Z,25.08
2022-08-25T02:04:27.023Z,25.01
2022-08-25T02:05:26.997Z,25.07
2022-08-25T02:06:29.745Z,25.3
2022-08-25T02:07:26.997Z,25.1
2022-08-25T02:08:26.995Z,25.13
2022-08-25T02:09:27.009Z,25.12
2022-08-25T02:10:26.996Z,25.12
2022-08-25T02:11:26.994Z,25.14
2022-08-25T02:12:28.181Z,25.15
2022-08-25T02:13:31.478Z,25.11
2022-08-25T02:14:27.005Z,25.07
2022-08-25T02:15:27.014Z,25.03
2022-08-25T02:16:27.099Z,25.09
2022-08-25T02:17:26.983Z,25.05
2022-08-25T02:18:26.981Z,25.14
2022-08-25T02:19:26.993Z,25.46
2022-08-25T02:20:26.985Z,25.41
2022-08-25T02:21:26.980Z,24.68
2022-08-25T02:22:26.976Z,25.13
2022-08-25T02:23:26.995Z,24.69
2022-08-25T02:24:26.996Z,24.86
2022-08-25T02:25:26.969Z,24.55
2022-08-25T02:26:26.971Z,24.73
2022-08-25T02:27:26.979Z,24.7
2022-08-25T02:28:26.968Z,24.63
2022-08-25T02:29:26.976Z,24.8
2022-08-25T02:30:27.016Z,24.9
2022-08-25T02:31:26.963Z,24.8
2022-08-25T02:32:26.969Z,24.86
2022-08-25T02:33:26.967Z,24.91
2022-08-25T02:34:26.982Z,25.18
2022-08-25T02:35:26.958Z,24.86
2022-08-25T02:36:26.963Z,25.05
2022-08-25T02:37:26.961Z,24.88
2022-08-25T02:38:26.956Z,24.71
2022-08-25T02:39:26.972Z,25.09
2022-08-25T02:40:27.063Z,25.14
2022-08-25T02:41:31.049Z,25.06
2022-08-25T02:42:26.958Z,25.28
2022-08-25T02:43:26.953Z,24.88
2022-08-25T02:44:26.965Z,25.16
2022-08-25T02:45:26.966Z,25.11
2022-08-25T02:46:27.071Z,25.08
2022-08-25T02:47:27.307Z,24.92
2022-08-25T02:48:26.946Z,25.11
2022-08-25T02:49:26.944Z,24.87
2022-08-25T02:50:26.954Z,25.09
2022-08-25T02:51:26.959Z,24.72
2022-08-25T02:52:26.943Z,24.77
2022-08-25T02:53:26.937Z,24.77
2022-08-25T02:54:26.942Z,24.71
2022-08-25T02:55:26.937Z,24.68
2022-08-25T02:56:26.957Z,25.14
2022-08-25T02:57:26.940Z,25.11
2022-08-25T02:58:26.939Z,25.23
2022-08-25T02:59:26.968Z,25.11
2022-08-25T03:00:26.931Z,25.21
2022-08-25T03:01:28.819Z,24.98
2022-08-25T03:02:26.926Z,25.15
2022-08-25T03:03:26.929Z,24.88
2022-08-25T03:04:27.006Z,25.05
2022-08-25T03:05:26.925Z,25.1
2022-08-25T03:06:26.943Z,25.39
2022-08-25T03:07:26.945Z,24.98
2022-08-25T03:08:26.928Z,24.98
2022-08-25T03:09:26.934Z,25.02
2022-08-25T03:10:26.917Z,24.92
2022-08-25T03:11:26.946Z,24.92
2022-08-25T03:12:26.957Z,24.85
2022-08-25T03:13:26.944Z,25.11
2022-08-25T03:14:26.920Z,25.16
2022-08-25T03:15:26.935Z,25.19
2022-08-25T03:16:27.905Z,25.22
2022-08-25T03:17:26.947Z,25.1
2022-08-25T03:18:26.932Z,25.16
2022-08-25T03:19:26.921Z,25.14
2022-08-25T03:20:26.931Z,25.14
2022-08-25T03:21:26.961Z,25
2022-08-25T03:22:26.925Z,25.18
2022-08-25T03:23:26.941Z,25.08
2022-08-25T03:24:26.912Z,25.12
2022-08-25T03:25:26.903Z,25.11
2022-08-25T03:26:26.916Z,25
2022-08-25T03:27:26.907Z,25.14
2022-08-25T03:28:29.852Z,25.35
2022-08-25T03:29:26.899Z,25.16
2022-08-25T03:30:26.927Z,25.14
2022-08-25T03:31:27.037Z,25.05
2022-08-25T03:32:26.926Z,25.38
2022-08-25T03:33:26.901Z,24.98
2022-08-25T03:34:26.893Z,25.08
2022-08-25T03:35:26.929Z,25.13
2022-08-25T03:36:26.893Z,24.81
2022-08-25T03:37:26.892Z,24.81
2022-08-25T03:38:26.895Z,24.99
2022-08-25T03:39:26.903Z,24.83
2022-08-25T03:40:27.089Z,25.24
2022-08-25T03:41:28.002Z,25.01
2022-08-25T03:42:26.883Z,25.13
2022-08-25T03:43:26.887Z,25.06
2022-08-25T03:44:26.895Z,25.06
2022-08-25T03:45:26.977Z,25.09
2022-08-25T03:46:26.885Z,25.07
2022-08-25T03:47:26.875Z,24.92
2022-08-25T03:48:26.877Z,25.04
2022-08-25T03:49:26.947Z,24.94
2022-08-25T03:50:26.875Z,24.9
2022-08-25T03:51:26.870Z,24.9
2022-08-25T03:52:26.875Z,25.06
2022-08-25T03:53:26.878Z,24.96
2022-08-25T03:54:26.881Z,25.13
2022-08-25T03:55:26.869Z,24.94
2022-08-25T03:56:26.867Z,25.06
2022-08-25T03:57:26.886Z,25.11
2022-08-25T03:58:26.869Z,25
2022-08-25T03:59:26.865Z,25.03
2022-08-25T04:00:26.866Z,24.9
2022-08-25T04:01:26.958Z,25.1
2022-08-25T04:02:26.938Z,25.1
2022-08-25T04:03:26.857Z,24.86
2022-08-25T04:04:26.859Z,24.86
2022-08-25T04:05:26.898Z,24.96
2022-08-25T04:06:26.872Z,24.87
2022-08-25T04:07:26.871Z,25.08
2022-08-25T04:08:26.858Z,25.18
2022-08-25T04:09:26.850Z,25.29
2022-08-25T04:10:26.857Z,25.16
2022-08-25T04:11:26.855Z,25.26
2022-08-25T04:12:26.867Z,25.22
2022-08-25T04:13:26.846Z,25.16
2022-08-25T04:14:26.864Z,25.14
2022-08-25T04:15:30.149Z,25.05
2022-08-25T04:16:26.957Z,25.14
2022-08-25T04:17:26.842Z,25.19
2022-08-25T04:18:26.856Z,25.16
2022-08-25T04:19:26.854Z,25.23
2022-08-25T04:20:26.841Z,25.21
2022-08-25T04:21:26.835Z,25.04
2022-08-25T04:22:26.840Z,25.28
2022-08-25T04:23:26.848Z,25.47
2022-08-25T04:24:26.837Z,25.58
2022-08-25T04:25:26.838Z,25.29
2022-08-25T04:26:26.836Z,25.33
2022-08-25T04:27:26.835Z,24.64
2022-08-25T04:28:26.850Z,24.13
2022-08-25T04:29:26.841Z,24.04
2022-08-25T04:30:26.834Z,23.75
2022-08-25T04:31:26.912Z,23.91
2022-08-25T04:32:26.830Z,23.81
2022-08-25T04:33:26.826Z,23.89
2022-08-25T04:34:31.014Z,24.04
2022-08-25T04:35:26.837Z,24.09
2022-08-25T04:36:26.837Z,24.16
2022-08-25T04:37:26.824Z,24.17
2022-08-25T04:38:26.824Z,24.19
2022-08-25T04:39:26.824Z,24.17
2022-08-25T04:40:29.001Z,24.12
2022-08-25T04:41:26.833Z,24.16
2022-08-25T04:42:26.818Z,24.22
2022-08-25T04:43:26.820Z,24.4
2022-08-25T04:44:26.812Z,24.47
2022-08-25T04:45:26.849Z,24.53
2022-08-25T04:46:26.806Z,24.62
2022-08-25T04:47:27.127Z,24.53
2022-08-25T04:48:26.805Z,24.62
2022-08-25T04:49:26.803Z,24.61
2022-08-25T04:50:26.820Z,24.62
2022-08-25T04:51:26.800Z,24.65
2022-08-25T04:52:26.812Z,24.64
2022-08-25T04:53:26.802Z,24.72
2022-08-25T04:54:26.801Z,24.94
2022-08-25T04:55:26.834Z,24.7
2022-08-25T04:56:26.800Z,24.87
2022-08-25T04:57:26.805Z,24.87
2022-08-25T04:58:26.795Z,24.86
2022-08-25T04:59:27.347Z,25.1
2022-08-25T05:00:26.812Z,25.13
2022-08-25T05:01:26.852Z,25.02
2022-08-25T05:02:26.792Z,25.11
2022-08-25T05:03:26.810Z,25.13
2022-08-25T05:04:28.483Z,25.4
2022-08-25T05:05:26.783Z,25.34
2022-08-25T05:06:26.808Z,25.32
2022-08-25T05:07:26.801Z,25.35
2022-08-25T05:08:26.790Z,25.33
2022-08-25T05:09:26.796Z,25.46
2022-08-25T05:10:26.784Z,25.53
2022-08-25T05:11:26.787Z,25.63
2022-08-25T05:12:26.782Z,25.13
2022-08-25T05:13:26.783Z,23.92
2022-08-25T05:14:26.926Z,23.7
2022-08-25T05:15:26.810Z,23.55
2022-08-25T05:16:26.812Z,23.36
2022-08-25T05:17:26.780Z,23.4
2022-08-25T05:18:26.768Z,23.59
2022-08-25T05:19:26.788Z,23.17
2022-08-25T05:20:26.773Z,23.6
2022-08-25T05:21:26.784Z,23.87
2022-08-25T05:22:26.767Z,23.73
2022-08-25T05:23:26.772Z,23.9
2022-08-25T05:24:26.786Z,23.93
2022-08-25T05:25:26.783Z,24.02
2022-08-25T05:26:26.768Z,24.07
2022-08-25T05:27:26.775Z,24.09
2022-08-25T05:28:26.764Z,23.91
2022-08-25T05:29:26.775Z,24
2022-08-25T05:30:26.761Z,24.08
2022-08-25T05:31:26.839Z,24.09
2022-08-25T05:32:26.754Z,24.31
2022-08-25T05:33:26.762Z,24.13
2022-08-25T05:34:26.768Z,24.07
2022-08-25T05:35:26.767Z,24.1
2022-08-25T05:36:26.749Z,24.15
2022-08-25T05:37:26.745Z,24.11
2022-08-25T05:38:26.747Z,24.16
2022-08-25T05:39:26.947Z,24.16
2022-08-25T05:40:26.833Z,24.37
2022-08-25T05:41:26.759Z,24.6
2022-08-25T05:42:26.746Z,24.65
2022-08-25T05:43:26.759Z,24.63
2022-08-25T05:44:26.744Z,24.62
2022-08-25T05:45:26.826Z,24.62
2022-08-25T05:46:26.740Z,24.61
2022-08-25T05:47:26.755Z,24.86
2022-08-25T05:48:26.758Z,24.81
2022-08-25T05:49:26.743Z,24.84
2022-08-25T05:50:26.738Z,24.78
2022-08-25T05:51:26.819Z,25.13
2022-08-25T05:52:26.736Z,25.32
2022-08-25T05:53:26.742Z,25.18
2022-08-25T05:54:26.731Z,25.23
2022-08-25T05:55:26.730Z,25.13
2022-08-25T05:56:26.733Z,25.45
2022-08-25T05:57:26.729Z,25.65
2022-08-25T05:58:26.743Z,25.81
2022-08-25T05:59:26.739Z,25.66
2022-08-25T06:00:26.783Z,25.81
2022-08-25T06:01:26.853Z,25.77
2022-08-25T06:02:26.732Z,26.25
2022-08-25T06:03:26.757Z,25.42
2022-08-25T06:04:26.743Z,25.4
2022-08-25T06:05:26.723Z,24.7
2022-08-25T06:06:26.744Z,24.71
2022-08-25T06:07:27.072Z,24.39
2022-08-25T06:08:26.713Z,24.45
2022-08-25T06:09:26.718Z,24.6
2022-08-25T06:10:26.743Z,24.77
2022-08-25T06:11:26.726Z,24.64
2022-08-25T06:12:26.714Z,24.62
2022-08-25T06:13:28.047Z,24.49
2022-08-25T06:14:26.705Z,24.61
2022-08-25T06:15:28.027Z,24.59
2022-08-25T06:16:26.796Z,24.7
2022-08-25T06:17:26.705Z,24.67
2022-08-25T06:18:26.704Z,24.61
2022-08-25T06:19:26.699Z,24.94
2022-08-25T06:20:26.698Z,25.09
2022-08-25T06:21:26.712Z,25.09
2022-08-25T06:22:26.716Z,24.94
2022-08-25T06:23:26.694Z,24.83
2022-08-25T06:24:26.696Z,25.08
2022-08-25T06:25:26.694Z,25.13
2022-08-25T06:26:26.694Z,25.08
2022-08-25T06:27:26.709Z,24.94
2022-08-25T06:28:26.696Z,25.19
2022-08-25T06:29:26.693Z,25.12
2022-08-25T06:30:29.014Z,24.9
2022-08-25T06:31:26.741Z,24.96
2022-08-25T06:32:26.705Z,25.12
2022-08-25T06:33:26.684Z,24.96
2022-08-25T06:34:26.688Z,24.98
2022-08-25T06:35:26.679Z,25.17
2022-08-25T06:36:26.679Z,24.99
2022-08-25T06:37:26.698Z,24.89
2022-08-25T06:38:26.684Z,24.82
2022-08-25T06:39:26.693Z,24.13
2022-08-25T06:40:26.820Z,24.04
2022-08-25T06:41:36.636Z,24.38
2022-08-25T06:42:26.690Z,23.76
2022-08-25T06:43:26.678Z,24.11
2022-08-25T06:44:26.687Z,24.39
2022-08-25T06:45:26.673Z,24.15
2022-08-25T06:46:34.670Z,24.2
2022-08-25T06:47:26.756Z,24.11
2022-08-25T06:48:26.673Z,24.13
2022-08-25T06:49:26.689Z,23.88
2022-08-25T06:50:26.667Z,23.89
2022-08-25T06:51:26.672Z,24.18
2022-08-25T06:52:29.102Z,24.41
2022-08-25T06:53:26.666Z,24.29
2022-08-25T06:54:26.676Z,24.07
2022-08-25T06:55:26.704Z,24.4
2022-08-25T06:56:26.741Z,24.5
2022-08-25T06:57:26.662Z,24.56
2022-08-25T06:58:26.672Z,24.75
2022-08-25T06:59:26.670Z,24.62
2022-08-25T07:00:30.534Z,24.69
2022-08-25T07:01:26.770Z,24.58
2022-08-25T07:02:26.758Z,24.75
2022-08-25T07:03:26.679Z,24.8
2022-08-25T07:04:26.667Z,24.99
2022-08-25T07:05:40.801Z,25.33
2022-08-25T07:06:26.648Z,25.37
2022-08-25T07:07:26.646Z,25.23
2022-08-25T07:08:26.659Z,25.6
2022-08-25T07:09:26.646Z,25.34
2022-08-25T07:10:26.646Z,25.64
2022-08-25T07:11:26.642Z,25.43
2022-08-25T07:12:26.643Z,25.7
2022-08-25T07:13:26.657Z,25.65
2022-08-25T07:14:26.637Z,25.78
2022-08-25T07:15:26.639Z,25.81
2022-08-25T07:16:29.655Z,26.35
2022-08-25T07:17:26.641Z,25.4
2022-08-25T07:18:26.703Z,25.19
2022-08-25T07:19:26.638Z,24.89
2022-08-25T07:20:26.661Z,24.39
2022-08-25T07:21:31.215Z,24.5
2022-08-25T07:22:26.637Z,24.68
2022-08-25T07:23:26.633Z,24.68
2022-08-25T07:24:26.624Z,24.92
2022-08-25T07:25:26.624Z,24.99
2022-08-25T07:26:37.334Z,24.89
2022-08-25T07:27:26.629Z,25.07
2022-08-25T07:28:26.627Z,24.98
2022-08-25T07:29:32.705Z,25.03
2022-08-25T07:30:26.643Z,25.05
2022-08-25T07:31:29.447Z,24.95
2022-08-25T07:32:26.621Z,24.97
2022-08-25T07:33:26.623Z,25.11
2022-08-25T07:34:26.616Z,24.85
2022-08-25T07:35:26.631Z,24.71
2022-08-25T07:36:26.616Z,24.39
2022-08-25T07:37:47.858Z,24.65
2022-08-25T07:38:26.607Z,24.59
2022-08-25T07:39:26.629Z,24.75
2022-08-25T07:40:26.730Z,24.2
2022-08-25T07:41:26.610Z,24.06
2022-08-25T07:42:26.602Z,24.17
2022-08-25T07:43:26.609Z,23.71
2022-08-25T07:44:28.039Z,24.22
2022-08-25T07:45:26.617Z,24.65
2022-08-25T07:46:26.682Z,24.2
2022-08-25T07:47:26.657Z,24.25
2022-08-25T07:48:26.597Z,24.21
2022-08-25T07:49:26.613Z,24.3
2022-08-25T07:50:26.597Z,24.3
2022-08-25T07:52:26.701Z,24.42
2022-08-25T07:53:26.617Z,24.18
2022-08-25T07:54:33.827Z,23.8
2022-08-25T07:55:27.118Z,23.92
2022-08-25T07:56:26.598Z,23.99
2022-08-25T07:57:26.597Z,24.06
2022-08-25T07:58:26.592Z,24.14
2022-08-25T07:59:26.602Z,24.25
2022-08-25T08:00:26.581Z,24.15
2022-08-25T08:01:26.727Z,24.57
2022-08-25T08:02:26.662Z,24.9
2022-08-25T08:03:44.588Z,24.85
2022-08-25T08:04:26.592Z,24.62
2022-08-25T08:05:26.600Z,24.5
2022-08-25T08:06:26.577Z,24.56
2022-08-25T08:07:42.291Z,24.59
2022-08-25T08:08:26.582Z,24.61
2022-08-25T08:09:26.578Z,24.61
2022-08-25T08:10:54.140Z,24.46
2022-08-25T08:11:26.573Z,24.45
2022-08-25T08:12:26.576Z,24.52
2022-08-25T08:13:26.575Z,24.5
2022-08-25T08:14:26.588Z,24.43
2022-08-25T08:15:29.733Z,24.58
2022-08-25T08:16:26.685Z,24.61
2022-08-25T08:17:26.581Z,24.62
2022-08-25T08:18:26.583Z,24.6
2022-08-25T08:19:26.572Z,24.72
2022-08-25T08:20:26.561Z,24.68
2022-08-25T08:21:26.577Z,24.7
2022-08-25T08:22:26.558Z,24.72
2022-08-25T08:23:26.561Z,24.77
2022-08-25T08:24:44.309Z,24.72
2022-08-25T08:25:27.638Z,24.89
2022-08-25T08:26:36.349Z,25.05
2022-08-25T08:27:26.557Z,25.02
2022-08-25T08:28:26.554Z,25.15
2022-08-25T08:29:26.553Z,25.16
2022-08-25T08:30:26.707Z,25.09
2022-08-25T08:31:26.617Z,25.01
2022-08-25T08:32:35.446Z,25.07
2022-08-25T08:33:26.546Z,25.06
2022-08-25T08:34:26.545Z,25.03
2022-08-25T08:35:26.579Z,24.86
2022-08-25T08:36:26.570Z,24.6
2022-08-25T08:37:26.552Z,24.61
2022-08-25T08:38:27.155Z,24.76
2022-08-25T08:39:26.544Z,24.58
2022-08-25T08:40:26.747Z,24.72
2022-08-25T08:41:26.549Z,24.74
2022-08-25T08:42:26.544Z,24.77
2022-08-25T08:43:28.335Z,24.62
2022-08-25T08:44:26.529Z,24.68
2022-08-25T08:45:26.534Z,24.66
2022-08-25T08:46:26.626Z,24.81
2022-08-25T08:47:26.527Z,24.79
2022-08-25T08:48:26.528Z,24.92
2022-08-25T08:49:26.779Z,24.73
2022-08-25T08:50:30.723Z,24.93
2022-08-25T08:51:32.926Z,25
2022-08-25T08:52:26.529Z,25.09
2022-08-25T08:53:26.540Z,25.1
2022-08-25T08:54:26.564Z,25.08
2022-08-25T08:55:26.524Z,25.07
2022-08-25T08:56:30.986Z,25.06
2022-08-25T08:57:26.524Z,25.03
2022-08-25T08:58:26.720Z,24.89
2022-08-25T08:59:30.296Z,24.69
2022-08-25T09:00:26.543Z,24.7
2022-08-25T09:01:26.616Z,24.76
2022-08-25T09:02:38.741Z,24.71
2022-08-25T09:03:26.594Z,24.68
2022-08-25T09:04:26.530Z,24.81
2022-08-25T09:05:26.525Z,24.93
2022-08-25T09:06:26.518Z,25.09
2022-08-25T09:07:26.511Z,25.14
2022-08-25T09:08:26.623Z,25.11
2022-08-25T09:09:26.521Z,24.93
2022-08-25T09:10:26.537Z,24.9
2022-08-25T09:11:26.666Z,24.91
2022-08-25T09:12:26.504Z,24.85
2022-08-25T09:13:26.500Z,24.92
2022-08-25T09:14:30.236Z,24.96
2022-08-25T09:15:26.505Z,24.95
2022-08-25T09:16:33.985Z,24.96
2022-08-25T09:17:26.511Z,25.11
2022-08-25T09:18:26.495Z,25.13
2022-08-25T09:19:26.514Z,25.16
2022-08-25T09:20:26.487Z,24.99
2022-08-25T09:21:26.527Z,24.4
2022-08-25T09:22:35.256Z,24.15
2022-08-25T09:23:26.487Z,23.89
2022-08-25T09:24:26.488Z,24.19
2022-08-25T09:25:48.739Z,24.22
2022-08-25T09:26:26.492Z,23.76
2022-08-25T09:27:26.502Z,23.66
2022-08-25T09:28:26.487Z,23.64
2022-08-25T09:29:26.498Z,23.68
2022-08-25T09:30:26.483Z,24.05
2022-08-25T09:31:29.508Z,23.91
2022-08-25T09:32:31.169Z,24.44
2022-08-25T09:33:26.490Z,24.17
2022-08-25T09:34:26.495Z,23.89
2022-08-25T09:35:26.485Z,24.11
2022-08-25T09:36:26.470Z,24.1
2022-08-25T09:37:26.480Z,24.19
2022-08-25T09:38:26.511Z,24.37
2022-08-25T09:39:26.582Z,24.41
2022-08-25T09:40:26.927Z,24.23
2022-08-25T09:41:26.489Z,24.28
2022-08-25T09:42:26.484Z,24.43
2022-08-25T09:43:26.489Z,24.31
2022-08-25T09:44:26.483Z,24.4
2022-08-25T09:45:26.504Z,24.27
2022-08-25T09:46:26.934Z,24.2
2022-08-25T09:47:26.489Z,24.24
2022-08-25T09:48:26.480Z,24.38
2022-08-25T09:49:26.476Z,24.51
2022-08-25T09:50:26.498Z,24.28
2022-08-25T09:51:26.476Z,24.37
2022-08-25T09:52:26.472Z,24.39
2022-08-25T09:53:26.484Z,24.55
2022-08-25T09:54:37.743Z,24.32
2022-08-25T09:55:26.609Z,24.53
2022-08-25T09:56:26.476Z,24.77
2022-08-25T09:57:26.472Z,24.87
2022-08-25T09:58:26.467Z,24.93
2022-08-25T09:59:34.851Z,24.97
2022-08-25T10:00:26.471Z,25.06
2022-08-25T10:01:26.513Z,25.04
2022-08-25T10:02:26.462Z,25.14
2022-08-25T10:03:26.462Z,25.17
2022-08-25T10:04:26.460Z,25.17
2022-08-25T10:05:26.549Z,25.19
2022-08-25T10:06:26.461Z,25.32
2022-08-25T10:07:26.459Z,25.11
2022-08-25T10:08:26.461Z,24.88
2022-08-25T10:09:26.485Z,25.11
2022-08-25T10:10:26.458Z,24.67
2022-08-25T10:11:26.456Z,25.23
2022-08-25T10:12:27.923Z,25.17
2022-08-25T10:13:26.473Z,25.36
2022-08-25T10:14:26.445Z,25.38
2022-08-25T10:15:30.081Z,25.23
2022-08-25T10:16:30.840Z,25.57
2022-08-25T10:17:27.740Z,25.18
2022-08-25T10:18:26.444Z,25.24
2022-08-25T10:19:26.447Z,25.25
2022-08-25T10:20:26.444Z,25.07
2022-08-25T10:21:26.444Z,25.84
2022-08-25T10:22:26.462Z,25.34
2022-08-25T10:23:26.463Z,25.97
2022-08-25T10:24:26.455Z,26.1
2022-08-25T10:25:29.250Z,25.73
2022-08-25T10:26:26.445Z,25.79
2022-08-25T10:27:28.628Z,25.04
2022-08-25T10:28:26.446Z,24.48
2022-08-25T10:29:26.432Z,24.4
2022-08-25T10:30:26.429Z,24.66
2022-08-25T10:31:26.467Z,24.66
2022-08-25T10:32:26.427Z,24.46
2022-08-25T10:33:26.442Z,24.49
2022-08-25T10:34:26.424Z,24.44
2022-08-25T10:35:26.430Z,24.48
2022-08-25T10:36:26.431Z,24.48
2022-08-25T10:37:26.433Z,24.44
2022-08-25T10:38:27.229Z,24.49
2022-08-25T10:39:34.487Z,24.48
2022-08-25T10:40:26.525Z,24.49
2022-08-25T10:41:26.421Z,24.54
2022-08-25T10:42:26.416Z,24.64
2022-08-25T10:43:26.414Z,24.54
2022-08-25T10:44:26.418Z,24.57
2022-08-25T10:45:26.424Z,24.72
2022-08-25T10:46:27.183Z,24.89
2022-08-25T10:47:26.418Z,24.68
2022-08-25T10:48:26.416Z,24.83
2022-08-25T10:49:26.424Z,24.79
2022-08-25T10:50:27.601Z,24.74
2022-08-25T10:51:26.401Z,24.7
2022-08-25T10:52:26.402Z,24.82
2022-08-25T10:53:26.422Z,24.73
2022-08-25T10:54:26.430Z,24.87
2022-08-25T10:55:26.412Z,24.87
2022-08-25T10:56:26.411Z,24.88
2022-08-25T10:57:26.403Z,25.04
2022-08-25T10:58:26.409Z,24.9
2022-08-25T10:59:26.396Z,24.95
2022-08-25T11:00:31.302Z,25.05
2022-08-25T11:01:28.659Z,25.17
2022-08-25T11:02:26.389Z,25.05
2022-08-25T11:03:26.797Z,25.03
2022-08-25T11:04:26.396Z,25.13
2022-08-25T11:05:26.446Z,25.15
2022-08-25T11:06:26.392Z,25.07
2022-08-25T11:07:26.389Z,24.85
2022-08-25T11:08:26.404Z,24.81
2022-08-25T11:09:26.391Z,24.23
2022-08-25T11:10:26.395Z,23.81
2022-08-25T11:11:26.384Z,24.15
2022-08-25T11:12:26.407Z,24.07
2022-08-25T11:13:26.385Z,24.23
2022-08-25T11:14:26.395Z,23.61
2022-08-25T11:15:26.375Z,23.66
2022-08-25T11:16:26.459Z,23.9
2022-08-25T11:17:26.383Z,24.32
2022-08-25T11:18:26.382Z,24.5
2022-08-25T11:19:26.387Z,24.39
2022-08-25T11:20:27.362Z,24.32
2022-08-25T11:21:26.394Z,24.53
2022-08-25T11:22:26.373Z,24.58
2022-08-25T11:23:26.367Z,24.62
2022-08-25T11:24:26.393Z,24.67
2022-08-25T11:25:26.395Z,25.02
2022-08-25T11:26:31.013Z,25.23
2022-08-25T11:27:26.487Z,25.06
2022-08-25T11:28:26.382Z,25.29
2022-08-25T11:29:26.362Z,25.08
2022-08-25T11:30:26.401Z,25.17
2022-08-25T11:31:26.378Z,25.35
2022-08-25T11:32:26.357Z,25.67
